Terminal Aerodrome Forecast
Issued by NWS

Home | Current Version | Previous Version | Text Only | Print | Product List | Glossary Off
Versions: 1 2 3 4 5 6 7 8 9 10 11 12 13 14 15 16

000
FTUS43 KTOP 210500
TAFMHK
TAF
KMHK 210520Z 2106/2206 16003KT P6SM VCSH BKN070
     FM211000 24003KT 4SM -SHRA BR BKN025
     FM211400 31008KT P6SM VCSH BKN035
     FM211900 33010KT P6SM SCT040=

USA.gov is the U.S. government's official web portal to all federal, state and local government web resources and services.